Time;durP1;ratioP1;P1;durP2;ratioP2;P2;SDS_P1;SDS_P2;PMS_P1;PMS_P2;Temp;Humidity;BMP_temperature;BMP_pressure;BME280_temperature;BME280_humidity;BME280_pressure;Samples;Min_cycle;Max_cycle;Signal;HPM_P1;HPM_P2
2023/01/07 00:07:37;;;;;;;9.07;5.43;;;;;;;-3.57;100.00;100916.44;31626790;28;20045;-81
2023/01/07 00:22:39;;;;;;;7.63;4.43;;;;;;;-4.22;100.00;100911.59;31621127;28;20056;-81
2023/01/07 00:37:50;;;;;;;10.63;5.93;;;;;;;-4.04;100.00;100939.84;31624900;28;20407;-83
2023/01/07 00:52:53;;;;;;;9.97;5.40;;;;;;;-4.17;100.00;100956.56;31608700;28;20052;-82
2023/01/07 01:07:55;;;;;;;13.33;6.80;;;;;;;-4.11;100.00;100958.03;31606010;28;20098;-82
2023/01/07 01:22:56;;;;;;;10.87;6.67;;;;;;;-4.04;100.00;100976.97;31619510;28;20491;-82
2023/01/07 01:37:59;;;;;;;13.80;6.80;;;;;;;-4.23;100.00;100981.59;31606525;28;20106;-83
2023/01/07 01:53:07;;;;;;;7.30;5.17;;;;;;;-4.32;100.00;100996.66;31616788;28;20048;-82
2023/01/07 02:08:09;;;;;;;7.00;5.37;;;;;;;-4.55;100.00;101019.66;31604772;28;20541;-82
2023/01/07 02:23:11;;;;;;;11.70;5.97;;;;;;;-4.26;100.00;101037.91;31601159;28;20052;-82
2023/01/07 02:38:31;;;;;;;9.83;5.60;;;;;;;-4.59;100.00;101040.63;31610293;28;20044;-82
2023/01/07 02:53:34;;;;;;;8.73;5.80;;;;;;;-4.76;100.00;101056.34;31611623;28;20072;-82
2023/01/07 03:09:01;;;;;;;10.13;6.70;;;;;;;-4.99;100.00;101067.84;31643774;28;20131;-82
2023/01/07 03:24:05;;;;;;;9.67;5.87;;;;;;;-5.09;100.00;101078.59;31625708;28;20048;-81
2023/01/07 03:39:12;;;;;;;4.93;4.00;;;;;;;-5.29;100.00;101101.69;31626943;28;20148;-82
2023/01/07 03:54:14;;;;;;;11.43;5.53;;;;;;;-5.84;100.00;101132.31;31631232;28;20044;-82
2023/01/07 04:09:20;;;;;;;10.80;5.90;;;;;;;-5.53;100.00;101143.31;31634084;28;20048;-82
2023/01/07 04:24:22;;;;;;;9.37;5.67;;;;;;;-5.69;100.00;101165.75;31644823;28;20076;-84
2023/01/07 04:39:24;;;;;;;11.60;6.53;;;;;;;-5.81;100.00;101168.00;31626132;28;20082;-84
2023/01/07 04:54:26;;;;;;;9.60;5.67;;;;;;;-5.84;100.00;101193.94;31624511;28;20491;-83
2023/01/07 05:09:28;;;;;;;12.07;6.03;;;;;;;-5.86;100.00;101211.16;31635935;28;20048;-84
2023/01/07 05:24:30;;;;;;;10.33;6.17;;;;;;;-5.89;100.00;101233.69;31639829;28;20082;-83
2023/01/07 05:39:32;;;;;;;8.83;6.43;;;;;;;-5.96;100.00;101257.03;31627988;28;20081;-84
2023/01/07 05:54:35;;;;;;;8.77;5.83;;;;;;;-5.70;100.00;101264.69;31629653;28;20045;-83
2023/01/07 06:09:37;;;;;;;11.87;5.67;;;;;;;-5.66;100.00;101279.69;31640033;28;20063;-84
2023/01/07 06:24:39;;;;;;;6.63;5.87;;;;;;;-4.80;100.00;101288.44;31652476;28;20056;-85
2023/01/07 06:39:41;;;;;;;8.50;5.57;;;;;;;-1.81;91.09;101282.47;31652645;28;20448;-85
2023/01/07 06:54:43;;;;;;;7.87;5.23;;;;;;;-2.62;86.00;101308.38;31651063;28;20040;-85
2023/01/07 07:09:51;;;;;;;10.67;5.80;;;;;;;0.58;73.35;101329.28;31647600;28;20052;-82
2023/01/07 07:24:53;;;;;;;12.27;5.67;;;;;;;1.36;58.75;101352.94;31640339;28;20101;-83
2023/01/07 07:39:55;;;;;;;9.13;5.43;;;;;;;1.56;47.46;101357.50;31648194;27;20453;-86
2023/01/07 07:54:57;;;;;;;9.60;4.97;;;;;;;1.87;43.22;101372.41;31642325;28;20048;-86
2023/01/07 08:10:19;;;;;;;10.40;5.67;;;;;;;2.98;40.69;101372.28;31637900;28;20513;-85
2023/01/07 08:25:21;;;;;;;9.30;4.90;;;;;;;3.29;38.66;101374.41;31634882;28;20056;-85
2023/01/07 08:40:23;;;;;;;11.03;4.60;;;;;;;4.42;35.48;101385.63;31631335;28;20063;-78
2023/01/07 08:55:25;;;;;;;9.97;4.50;;;;;;;4.11;35.84;101380.16;31610684;28;20052;-86
2023/01/07 09:10:27;;;;;;;9.33;4.33;;;;;;;3.50;36.05;101372.34;31639473;28;20640;-85
2023/01/07 09:25:29;;;;;;;6.33;3.80;;;;;;;3.36;35.28;101371.91;31664031;28;20444;-87
2023/01/07 09:40:36;;;;;;;8.07;4.53;;;;;;;4.23;33.99;101369.38;31656734;28;20059;-85
2023/01/07 09:55:41;;;;;;;7.47;4.07;;;;;;;4.49;33.31;101357.34;31660522;28;20040;-84
2023/01/07 10:11:15;;;;;;;8.57;4.37;;;;;;;4.54;31.79;101359.75;31731441;28;20060;-82
2023/01/07 10:26:42;;;;;;;9.17;4.17;;;;;;;4.02;32.48;101355.34;31639955;28;20083;-81
2023/01/07 10:42:11;;;;;;;5.67;3.77;;;;;;;4.14;31.70;101365.28;31643818;28;20056;-83
2023/01/07 10:57:23;;;;;;;7.83;3.87;;;;;;;3.43;32.50;101366.75;31744642;28;20043;-83
2023/01/07 11:13:00;;;;;;;10.57;3.73;;;;;;;3.59;33.55;101362.22;31764625;28;20055;-84
2023/01/07 11:28:02;;;;;;;;;;;;;;;3.69;33.41;101364.44;31602902;28;20048;-77
2023/01/07 11:43:33;;;;;;;10.70;3.17;;;;;;;2.00;33.28;101387.38;31622609;28;20272;-78
2023/01/07 11:58:38;;;;;;;5.37;3.20;;;;;;;1.86;33.69;101386.91;31614195;28;20415;-78
2023/01/07 12:13:51;;;;;;;9.67;4.30;;;;;;;-0.27;38.81;101391.66;31594796;28;20049;-78
2023/01/07 12:29:19;;;;;;;8.20;3.77;;;;;;;-1.67;43.13;101412.84;31627002;28;20077;-80
2023/01/07 12:44:21;;;;;;;8.60;4.10;;;;;;;-1.53;43.40;101424.19;31643976;28;20047;-79
2023/01/07 12:59:41;;;;;;;5.50;4.17;;;;;;;-1.59;43.46;101440.59;31567830;28;20125;-79
2023/01/07 13:14:52;;;;;;;4.93;3.40;;;;;;;-2.24;46.47;101457.78;31635955;28;20056;-78
2023/01/07 13:30:12;;;;;;;;;;;;;;;-1.95;45.05;101452.09;31568614;28;20056;-80
2023/01/07 13:45:30;;;;;;;5.07;3.17;;;;;;;-2.33;46.79;101475.53;31629828;28;19973;-81
2023/01/07 14:00:43;;;;;;;6.33;3.47;;;;;;;-2.53;47.31;101484.72;31677847;28;20135;-81
2023/01/07 14:16:13;;;;;;;4.13;3.47;;;;;;;-2.68;49.69;101487.69;31646722;28;20107;-83
2023/01/07 14:31:25;;;;;;;4.67;3.60;;;;;;;-2.76;51.76;101509.63;31687216;28;20058;-83
2023/01/07 14:47:06;;;;;;;5.73;3.73;;;;;;;-2.76;48.36;101531.69;31695156;28;20048;-83
2023/01/07 15:02:32;;;;;;;9.60;4.93;;;;;;;-3.06;50.01;101542.03;31719159;28;20047;-83
2023/01/07 15:17:38;;;;;;;5.77;3.53;;;;;;;-3.14;49.90;101546.97;31770939;28;20052;-83
2023/01/07 15:33:05;;;;;;;8.87;4.10;;;;;;;-3.37;49.34;101555.84;31672604;28;20056;-83
2023/01/07 15:48:11;;;;;;;9.73;6.43;;;;;;;-3.52;51.09;101558.69;31655206;28;20048;-82
2023/01/07 16:03:16;;;;;;;16.33;6.33;;;;;;;-3.66;51.95;101579.09;31636924;28;20063;-84
2023/01/07 16:18:18;;;;;;;31.03;6.20;;;;;;;-3.71;54.70;101587.09;31683757;28;20066;-82
2023/01/07 16:33:24;;;;;;;8.93;4.97;;;;;;;-3.81;55.94;101601.31;31655141;28;20095;-86
2023/01/07 16:48:26;;;;;;;9.23;5.27;;;;;;;-3.85;58.81;101601.09;31639934;28;20055;-78
2023/01/07 17:03:31;;;;;;;8.63;6.70;;;;;;;-3.93;63.59;101622.94;31590072;28;20047;-80
2023/01/07 17:18:33;;;;;;;;;;;;;;;-4.00;62.37;101632.31;31604486;28;20475;-82
2023/01/07 17:33:35;;;;;;;8.97;6.37;;;;;;;-4.77;67.10;101642.91;31609266;28;20321;-77
2023/01/07 17:48:37;;;;;;;15.00;7.07;;;;;;;-4.81;75.45;101640.00;31586698;28;20054;-77
2023/01/07 18:03:40;;;;;;;8.50;5.53;;;;;;;-5.07;71.26;101651.06;31613837;28;20064;-79
2023/01/07 18:18:42;;;;;;;9.90;6.30;;;;;;;-4.96;70.02;101656.00;31610253;28;20094;-75
2023/01/07 18:33:44;;;;;;;10.83;6.70;;;;;;;-4.76;65.79;101660.38;31584530;28;20056;-77
2023/01/07 18:48:45;;;;;;;10.33;5.47;;;;;;;-5.54;70.28;101671.72;31586274;28;20052;-79
2023/01/07 19:03:48;;;;;;;9.87;4.60;;;;;;;-5.57;68.63;101677.56;31618071;28;20051;-78
2023/01/07 19:18:51;;;;;;;7.37;4.60;;;;;;;-5.77;71.57;101679.50;31627592;28;20090;-75
2023/01/07 19:33:53;;;;;;;18.53;10.37;;;;;;;-5.65;74.41;101680.75;31601941;28;20067;-76
2023/01/07 19:48:55;;;;;;;11.13;7.43;;;;;;;-5.78;79.05;101680.56;31604679;28;20097;-75
2023/01/07 20:03:58;;;;;;;12.30;7.20;;;;;;;-5.88;80.06;101686.66;31621637;28;20044;-77
2023/01/07 20:19:00;;;;;;;14.97;7.47;;;;;;;-5.72;77.51;101682.94;31581316;28;20036;-76
2023/01/07 20:34:02;;;;;;;8.00;5.73;;;;;;;-6.27;77.70;101678.59;31602579;28;20128;-80
2023/01/07 20:49:04;;;;;;;5.00;4.53;;;;;;;-6.31;79.03;101703.97;31592507;27;20106;-76
2023/01/07 21:04:06;;;;;;;11.97;6.43;;;;;;;-6.42;80.63;101723.56;31587412;28;20060;-76
2023/01/07 21:19:08;;;;;;;9.33;7.30;;;;;;;-6.77;81.53;101759.44;31560840;28;20085;-75
2023/01/07 21:34:10;;;;;;;5.33;4.83;;;;;;;-6.76;82.56;101766.31;31574625;28;20514;-76
2023/01/07 21:49:12;;;;;;;7.07;4.97;;;;;;;-6.74;82.99;101764.22;31585787;28;20134;-75
2023/01/07 22:04:15;;;;;;;7.00;6.17;;;;;;;-7.25;83.77;101753.53;31613070;28;20056;-76
2023/01/07 22:19:16;;;;;;;11.40;4.90;;;;;;;-7.27;83.88;101770.66;31579551;28;20522;-76
2023/01/07 22:34:19;;;;;;;8.13;6.20;;;;;;;-7.26;83.61;101774.88;31560416;28;20181;-76
2023/01/07 22:49:24;;;;;;;3.83;3.53;;;;;;;-7.42;85.28;101776.69;31582091;28;20156;-75
2023/01/07 23:04:27;;;;;;;4.60;4.20;;;;;;;-7.82;85.84;101776.47;31575650;28;20056;-75
2023/01/07 23:19:29;;;;;;;7.43;6.17;;;;;;;-7.73;84.68;101775.72;31614987;28;20499;-75
2023/01/07 23:34:33;;;;;;;19.27;6.37;;;;;;;-7.98;84.98;101786.91;31582382;28;20144;-74
2023/01/07 23:49:35;;;;;;;10.43;4.60;;;;;;;-7.96;85.21;101816.44;31580227;28;20040;-75
